sensor_id;sensor_type;location;lat;lon;timestamp;pressure;altitude;pressure_sealevel;temperature;humidity
7532;BME280;3807;49.030;8.714;2023-04-25T00:02:06;98725.53;;;13.11;62.36
7532;BME280;3807;49.030;8.714;2023-04-25T00:04:32;98727.34;;;13.09;62.51
7532;BME280;3807;49.030;8.714;2023-04-25T00:06:59;98726.59;;;12.58;63.87
7532;BME280;3807;49.030;8.714;2023-04-25T00:09:27;98719.41;;;12.98;62.97
7532;BME280;3807;49.030;8.714;2023-04-25T00:11:52;98722.13;;;13.10;62.42
7532;BME280;3807;49.030;8.714;2023-04-25T00:14:17;98712.72;;;12.95;62.63
7532;BME280;3807;49.030;8.714;2023-04-25T00:16:43;98726.59;;;13.07;62.47
7532;BME280;3807;49.030;8.714;2023-04-25T00:19:09;98722.88;;;13.13;62.03
7532;BME280;3807;49.030;8.714;2023-04-25T00:21:34;98727.91;;;13.14;61.72
7532;BME280;3807;49.030;8.714;2023-04-25T00:24:00;98724.19;;;13.04;62.41
7532;BME280;3807;49.030;8.714;2023-04-25T00:26:26;98730.16;;;13.04;62.17
7532;BME280;3807;49.030;8.714;2023-04-25T00:28:52;98730.00;;;13.07;61.97
7532;BME280;3807;49.030;8.714;2023-04-25T00:31:17;98734.25;;;13.07;62.33
7532;BME280;3807;49.030;8.714;2023-04-25T00:33:43;98720.56;;;12.92;62.30
7532;BME280;3807;49.030;8.714;2023-04-25T00:36:08;98719.38;;;12.82;62.84
7532;BME280;3807;49.030;8.714;2023-04-25T00:38:34;98719.59;;;12.95;62.24
7532;BME280;3807;49.030;8.714;2023-04-25T00:41:00;98713.37;;;12.83;62.79
7532;BME280;3807;49.030;8.714;2023-04-25T00:43:30;98718.00;;;12.76;62.75
7532;BME280;3807;49.030;8.714;2023-04-25T00:45:57;98717.56;;;12.68;62.90
7532;BME280;3807;49.030;8.714;2023-04-25T00:48:25;98715.91;;;12.67;63.17
7532;BME280;3807;49.030;8.714;2023-04-25T00:50:53;98718.09;;;12.91;62.53
7532;BME280;3807;49.030;8.714;2023-04-25T00:53:20;98708.69;;;12.91;62.44
7532;BME280;3807;49.030;8.714;2023-04-25T00:55:46;98702.81;;;12.73;62.73
7532;BME280;3807;49.030;8.714;2023-04-25T00:58:11;98711.56;;;12.69;63.12
7532;BME280;3807;49.030;8.714;2023-04-25T01:00:37;98696.91;;;12.73;63.12
7532;BME280;3807;49.030;8.714;2023-04-25T01:03:03;98703.34;;;12.80;62.91
7532;BME280;3807;49.030;8.714;2023-04-25T01:05:29;98692.75;;;12.70;62.94
7532;BME280;3807;49.030;8.714;2023-04-25T01:07:54;98692.50;;;12.75;62.81
7532;BME280;3807;49.030;8.714;2023-04-25T01:10:20;98693.19;;;12.78;62.70
7532;BME280;3807;49.030;8.714;2023-04-25T01:12:45;98693.28;;;12.77;62.70
7532;BME280;3807;49.030;8.714;2023-04-25T01:15:11;98690.37;;;12.83;62.54
7532;BME280;3807;49.030;8.714;2023-04-25T01:17:36;98691.03;;;12.71;62.99
7532;BME280;3807;49.030;8.714;2023-04-25T01:20:06;98700.75;;;12.64;63.00
7532;BME280;3807;49.030;8.714;2023-04-25T01:22:32;98693.28;;;12.44;64.02
7532;BME280;3807;49.030;8.714;2023-04-25T01:24:58;98699.00;;;12.31;63.90
7532;BME280;3807;49.030;8.714;2023-04-25T01:27:25;98701.84;;;12.43;64.15
7532;BME280;3807;49.030;8.714;2023-04-25T01:29:51;98699.09;;;12.63;63.16
7532;BME280;3807;49.030;8.714;2023-04-25T01:32:16;98693.50;;;12.72;62.77
7532;BME280;3807;49.030;8.714;2023-04-25T01:34:42;98680.47;;;12.61;63.25
7532;BME280;3807;49.030;8.714;2023-04-25T01:37:08;98680.16;;;12.67;62.65
7532;BME280;3807;49.030;8.714;2023-04-25T01:39:33;98673.47;;;12.64;63.05
7532;BME280;3807;49.030;8.714;2023-04-25T01:41:59;98673.97;;;12.55;62.93
7532;BME280;3807;49.030;8.714;2023-04-25T01:44:24;98674.03;;;12.54;63.01
7532;BME280;3807;49.030;8.714;2023-04-25T01:46:50;98669.56;;;12.57;62.83
7532;BME280;3807;49.030;8.714;2023-04-25T01:49:16;98673.00;;;12.40;63.20
7532;BME280;3807;49.030;8.714;2023-04-25T01:51:41;98679.69;;;12.43;63.26
7532;BME280;3807;49.030;8.714;2023-04-25T01:54:08;98679.62;;;12.60;62.97
7532;BME280;3807;49.030;8.714;2023-04-25T01:56:37;98676.50;;;12.55;62.75
7532;BME280;3807;49.030;8.714;2023-04-25T01:59:03;98677.72;;;12.48;63.11
7532;BME280;3807;49.030;8.714;2023-04-25T02:01:29;98677.41;;;12.21;63.94
7532;BME280;3807;49.030;8.714;2023-04-25T02:03:55;98681.47;;;12.41;63.58
7532;BME280;3807;49.030;8.714;2023-04-25T02:06:20;98677.13;;;12.43;63.20
7532;BME280;3807;49.030;8.714;2023-04-25T02:08:46;98676.31;;;12.58;62.92
7532;BME280;3807;49.030;8.714;2023-04-25T02:11:11;98678.47;;;12.50;63.05
7532;BME280;3807;49.030;8.714;2023-04-25T02:13:36;98684.53;;;12.32;63.58
7532;BME280;3807;49.030;8.714;2023-04-25T02:16:02;98679.69;;;12.10;64.46
7532;BME280;3807;49.030;8.714;2023-04-25T02:18:27;98681.91;;;11.99;64.48
7532;BME280;3807;49.030;8.714;2023-04-25T02:20:52;98674.56;;;12.10;64.27
7532;BME280;3807;49.030;8.714;2023-04-25T02:23:18;98678.75;;;12.28;63.80
7532;BME280;3807;49.030;8.714;2023-04-25T02:25:46;98675.53;;;12.40;63.38
7532;BME280;3807;49.030;8.714;2023-04-25T02:28:11;98674.75;;;12.23;63.64
7532;BME280;3807;49.030;8.714;2023-04-25T02:30:37;98671.09;;;12.28;63.56
7532;BME280;3807;49.030;8.714;2023-04-25T02:33:02;98673.50;;;12.14;63.87
7532;BME280;3807;49.030;8.714;2023-04-25T02:35:28;98667.87;;;12.07;64.38
7532;BME280;3807;49.030;8.714;2023-04-25T02:37:53;98667.66;;;11.95;64.69
7532;BME280;3807;49.030;8.714;2023-04-25T02:40:18;98674.09;;;12.19;64.03
7532;BME280;3807;49.030;8.714;2023-04-25T02:42:44;98675.06;;;12.16;63.92
7532;BME280;3807;49.030;8.714;2023-04-25T02:45:11;98669.63;;;12.07;64.08
7532;BME280;3807;49.030;8.714;2023-04-25T02:47:36;98673.81;;;12.08;64.16
7532;BME280;3807;49.030;8.714;2023-04-25T02:50:02;98668.63;;;12.09;64.23
7532;BME280;3807;49.030;8.714;2023-04-25T02:52:27;98667.13;;;12.05;64.21
7532;BME280;3807;49.030;8.714;2023-04-25T02:54:53;98657.84;;;11.87;65.07
7532;BME280;3807;49.030;8.714;2023-04-25T02:57:18;98651.34;;;11.80;65.32
7532;BME280;3807;49.030;8.714;2023-04-25T02:59:43;98649.03;;;11.75;65.50
7532;BME280;3807;49.030;8.714;2023-04-25T03:02:09;98650.41;;;12.00;64.76
7532;BME280;3807;49.030;8.714;2023-04-25T03:04:34;98645.50;;;11.95;64.82
7532;BME280;3807;49.030;8.714;2023-04-25T03:07:00;98648.59;;;11.84;65.29
7532;BME280;3807;49.030;8.714;2023-04-25T03:09:26;98647.19;;;11.96;64.90
7532;BME280;3807;49.030;8.714;2023-04-25T03:11:51;98646.66;;;12.07;64.43
7532;BME280;3807;49.030;8.714;2023-04-25T03:14:17;98642.09;;;11.96;64.92
7532;BME280;3807;49.030;8.714;2023-04-25T03:16:42;98645.97;;;12.03;64.47
7532;BME280;3807;49.030;8.714;2023-04-25T03:19:07;98641.16;;;12.14;64.09
7532;BME280;3807;49.030;8.714;2023-04-25T03:21:34;98653.53;;;12.05;64.51
7532;BME280;3807;49.030;8.714;2023-04-25T03:24:02;98662.31;;;12.16;64.17
7532;BME280;3807;49.030;8.714;2023-04-25T03:26:28;98655.66;;;12.14;64.04
7532;BME280;3807;49.030;8.714;2023-04-25T03:28:53;98651.28;;;12.16;64.05
7532;BME280;3807;49.030;8.714;2023-04-25T03:31:18;98648.88;;;12.13;63.87
7532;BME280;3807;49.030;8.714;2023-04-25T03:33:44;98651.28;;;11.81;65.01
7532;BME280;3807;49.030;8.714;2023-04-25T03:36:09;98643.19;;;12.08;64.30
7532;BME280;3807;49.030;8.714;2023-04-25T03:38:35;98646.25;;;12.14;63.96
7532;BME280;3807;49.030;8.714;2023-04-25T03:41:01;98654.97;;;12.10;64.15
7532;BME280;3807;49.030;8.714;2023-04-25T03:43:27;98655.66;;;12.14;63.81
7532;BME280;3807;49.030;8.714;2023-04-25T03:45:52;98656.62;;;12.11;63.88
7532;BME280;3807;49.030;8.714;2023-04-25T03:48:18;98649.06;;;12.10;63.88
7532;BME280;3807;49.030;8.714;2023-04-25T03:50:44;98649.06;;;12.10;63.94
7532;BME280;3807;49.030;8.714;2023-04-25T03:53:09;98651.81;;;12.05;63.95
7532;BME280;3807;49.030;8.714;2023-04-25T03:55:35;98657.28;;;12.15;63.50
7532;BME280;3807;49.030;8.714;2023-04-25T03:58:00;98655.31;;;12.20;63.28
7532;BME280;3807;49.030;8.714;2023-04-25T04:00:26;98655.72;;;12.12;63.69
7532;BME280;3807;49.030;8.714;2023-04-25T04:02:51;98661.56;;;12.14;63.39
7532;BME280;3807;49.030;8.714;2023-04-25T04:05:16;98663.66;;;12.06;63.86
7532;BME280;3807;49.030;8.714;2023-04-25T04:07:42;98652.78;;;12.03;63.94
7532;BME280;3807;49.030;8.714;2023-04-25T04:10:09;98664.19;;;11.96;64.06
7532;BME280;3807;49.030;8.714;2023-04-25T04:12:34;98661.97;;;11.89;64.26
7532;BME280;3807;49.030;8.714;2023-04-25T04:15:00;98658.38;;;11.94;63.99
7532;BME280;3807;49.030;8.714;2023-04-25T04:17:25;98658.66;;;11.87;64.40
7532;BME280;3807;49.030;8.714;2023-04-25T04:19:51;98660.69;;;11.98;63.98
7532;BME280;3807;49.030;8.714;2023-04-25T04:22:16;98659.09;;;11.96;63.82
7532;BME280;3807;49.030;8.714;2023-04-25T04:24:42;98663.00;;;11.85;64.43
7532;BME280;3807;49.030;8.714;2023-04-25T04:27:11;98669.00;;;11.84;64.38
7532;BME280;3807;49.030;8.714;2023-04-25T04:29:38;98675.84;;;11.84;64.26
7532;BME280;3807;49.030;8.714;2023-04-25T04:32:03;98670.97;;;12.14;63.52
7532;BME280;3807;49.030;8.714;2023-04-25T04:34:29;98677.81;;;11.96;63.84
7532;BME280;3807;49.030;8.714;2023-04-25T04:36:56;98668.09;;;11.85;64.20
7532;BME280;3807;49.030;8.714;2023-04-25T04:39:21;98673.06;;;11.88;64.12
7532;BME280;3807;49.030;8.714;2023-04-25T04:41:47;98680.94;;;11.84;64.06
7532;BME280;3807;49.030;8.714;2023-04-25T04:44:12;98676.72;;;11.83;64.18
7532;BME280;3807;49.030;8.714;2023-04-25T04:46:39;98675.44;;;11.74;64.60
7532;BME280;3807;49.030;8.714;2023-04-25T04:49:08;98666.94;;;11.93;63.94
7532;BME280;3807;49.030;8.714;2023-04-25T04:51:33;98671.50;;;11.86;63.93
7532;BME280;3807;49.030;8.714;2023-04-25T04:53:59;98676.88;;;11.80;64.31
7532;BME280;3807;49.030;8.714;2023-04-25T04:56:28;98682.94;;;11.77;64.22
7532;BME280;3807;49.030;8.714;2023-04-25T04:58:54;98683.56;;;11.82;64.24
7532;BME280;3807;49.030;8.714;2023-04-25T05:01:19;98695.69;;;11.77;64.37
7532;BME280;3807;49.030;8.714;2023-04-25T05:03:45;98692.78;;;11.85;63.82
7532;BME280;3807;49.030;8.714;2023-04-25T05:06:10;98688.41;;;11.69;64.56
7532;BME280;3807;49.030;8.714;2023-04-25T05:08:36;98683.41;;;11.85;64.07
7532;BME280;3807;49.030;8.714;2023-04-25T05:11:02;98688.50;;;11.68;64.41
7532;BME280;3807;49.030;8.714;2023-04-25T05:13:27;98687.78;;;11.64;64.68
7532;BME280;3807;49.030;8.714;2023-04-25T05:15:52;98690.19;;;11.67;64.51
7532;BME280;3807;49.030;8.714;2023-04-25T05:18:18;98689.37;;;11.67;64.62
7532;BME280;3807;49.030;8.714;2023-04-25T05:20:43;98682.69;;;11.64;64.64
7532;BME280;3807;49.030;8.714;2023-04-25T05:23:08;98692.75;;;11.67;64.26
7532;BME280;3807;49.030;8.714;2023-04-25T05:25:34;98693.13;;;11.77;64.28
7532;BME280;3807;49.030;8.714;2023-04-25T05:27:59;98679.16;;;11.86;63.87
7532;BME280;3807;49.030;8.714;2023-04-25T05:30:25;98690.00;;;11.72;64.20
7532;BME280;3807;49.030;8.714;2023-04-25T05:32:50;98690.69;;;11.76;64.21
7532;BME280;3807;49.030;8.714;2023-04-25T05:35:16;98697.41;;;11.77;64.03
7532;BME280;3807;49.030;8.714;2023-04-25T05:37:41;98695.69;;;11.60;64.82
7532;BME280;3807;49.030;8.714;2023-04-25T05:40:08;98692.75;;;11.67;64.51
7532;BME280;3807;49.030;8.714;2023-04-25T05:42:34;98694.28;;;11.72;64.25
7532;BME280;3807;49.030;8.714;2023-04-25T05:44:59;98693.91;;;11.79;64.13
7532;BME280;3807;49.030;8.714;2023-04-25T05:47:24;98693.91;;;11.79;64.14
7532;BME280;3807;49.030;8.714;2023-04-25T05:49:50;98693.22;;;11.76;64.09
7532;BME280;3807;49.030;8.714;2023-04-25T05:52:15;98691.50;;;11.76;64.16
7532;BME280;3807;49.030;8.714;2023-04-25T05:54:40;98694.62;;;11.81;63.90
7532;BME280;3807;49.030;8.714;2023-04-25T05:57:06;98698.53;;;11.71;64.11
7532;BME280;3807;49.030;8.714;2023-04-25T05:59:31;98694.34;;;11.70;64.27
7532;BME280;3807;49.030;8.714;2023-04-25T06:01:56;98697.66;;;11.72;64.38
7532;BME280;3807;49.030;8.714;2023-04-25T06:04:22;98693.22;;;11.58;64.77
7532;BME280;3807;49.030;8.714;2023-04-25T06:06:47;98693.56;;;11.87;64.08
7532;BME280;3807;49.030;8.714;2023-04-25T06:09:12;98694.12;;;11.92;63.73
7532;BME280;3807;49.030;8.714;2023-04-25T06:11:38;98704.78;;;11.83;64.00
7532;BME280;3807;49.030;8.714;2023-04-25T06:14:03;98695.63;;;11.79;64.26
7532;BME280;3807;49.030;8.714;2023-04-25T06:16:28;98697.56;;;11.74;64.23
7532;BME280;3807;49.030;8.714;2023-04-25T06:18:54;98700.19;;;11.72;64.24
7532;BME280;3807;49.030;8.714;2023-04-25T06:21:19;98704.78;;;11.65;64.65
7532;BME280;3807;49.030;8.714;2023-04-25T06:23:44;98702.91;;;11.69;64.54
7532;BME280;3807;49.030;8.714;2023-04-25T06:26:10;98709.94;;;11.64;64.63
7532;BME280;3807;49.030;8.714;2023-04-25T06:28:35;98707.38;;;11.64;64.65
7532;BME280;3807;49.030;8.714;2023-04-25T06:31:01;98702.66;;;11.74;64.49
7532;BME280;3807;49.030;8.714;2023-04-25T06:33:26;98706.03;;;11.74;64.44
7532;BME280;3807;49.030;8.714;2023-04-25T06:35:51;98710.25;;;11.75;64.53
7532;BME280;3807;49.030;8.714;2023-04-25T06:38:17;98713.53;;;11.60;65.24
7532;BME280;3807;49.030;8.714;2023-04-25T06:40:42;98709.25;;;11.60;65.13
7532;BME280;3807;49.030;8.714;2023-04-25T06:43:07;98716.72;;;11.82;64.31
7532;BME280;3807;49.030;8.714;2023-04-25T06:45:33;98709.25;;;11.78;64.49
7532;BME280;3807;49.030;8.714;2023-04-25T06:47:58;98714.03;;;11.85;64.31
7532;BME280;3807;49.030;8.714;2023-04-25T06:50:24;98716.03;;;11.79;64.31
7532;BME280;3807;49.030;8.714;2023-04-25T06:52:49;98721.19;;;11.77;64.66
7532;BME280;3807;49.030;8.714;2023-04-25T06:55:14;98724.38;;;11.82;64.55
7532;BME280;3807;49.030;8.714;2023-04-25T06:57:40;98725.72;;;11.72;64.81
7532;BME280;3807;49.030;8.714;2023-04-25T07:00:05;98727.06;;;11.79;64.61
7532;BME280;3807;49.030;8.714;2023-04-25T07:02:34;98728.03;;;11.77;64.69
7532;BME280;3807;49.030;8.714;2023-04-25T07:04:59;98730.44;;;11.80;64.71
7532;BME280;3807;49.030;8.714;2023-04-25T07:07:25;98725.47;;;11.77;64.75
7532;BME280;3807;49.030;8.714;2023-04-25T07:09:51;98729.75;;;11.76;64.77
7532;BME280;3807;49.030;8.714;2023-04-25T07:12:16;98730.66;;;11.75;64.91
7532;BME280;3807;49.030;8.714;2023-04-25T07:14:41;98738.22;;;11.77;64.86
7532;BME280;3807;49.030;8.714;2023-04-25T07:17:07;98731.16;;;11.82;64.62
7532;BME280;3807;49.030;8.714;2023-04-25T07:19:32;98740.38;;;11.86;64.67
7532;BME280;3807;49.030;8.714;2023-04-25T07:21:58;98731.44;;;11.95;64.30
7532;BME280;3807;49.030;8.714;2023-04-25T07:24:23;98728.97;;;11.93;64.35
7532;BME280;3807;49.030;8.714;2023-04-25T07:26:49;98723.47;;;11.83;64.66
7532;BME280;3807;49.030;8.714;2023-04-25T07:29:14;98732.84;;;11.83;64.70
7532;BME280;3807;49.030;8.714;2023-04-25T07:31:39;98725.34;;;11.80;64.81
7532;BME280;3807;49.030;8.714;2023-04-25T07:34:05;98740.97;;;11.91;64.63
7532;BME280;3807;49.030;8.714;2023-04-25T07:36:31;98736.97;;;11.85;64.54
7532;BME280;3807;49.030;8.714;2023-04-25T07:38:56;98743.81;;;11.85;64.68
7532;BME280;3807;49.030;8.714;2023-04-25T07:41:21;98737.75;;;11.87;64.64
7532;BME280;3807;49.030;8.714;2023-04-25T07:43:47;98744.09;;;11.79;64.91
7532;BME280;3807;49.030;8.714;2023-04-25T07:46:12;98744.28;;;11.74;65.08
7532;BME280;3807;49.030;8.714;2023-04-25T07:48:38;98747.38;;;11.81;64.98
7532;BME280;3807;49.030;8.714;2023-04-25T07:51:03;98753.00;;;11.89;64.79
7532;BME280;3807;49.030;8.714;2023-04-25T07:53:30;98755.75;;;11.84;64.81
7532;BME280;3807;49.030;8.714;2023-04-25T07:55:56;98749.69;;;11.87;64.80
7532;BME280;3807;49.030;8.714;2023-04-25T07:58:21;98752.44;;;11.82;65.04
7532;BME280;3807;49.030;8.714;2023-04-25T08:00:47;98759.19;;;11.83;65.08
7532;BME280;3807;49.030;8.714;2023-04-25T08:03:13;98764.22;;;11.85;64.94
7532;BME280;3807;49.030;8.714;2023-04-25T08:05:38;98770.91;;;11.87;65.04
7532;BME280;3807;49.030;8.714;2023-04-25T08:08:04;98772.50;;;11.90;64.71
7532;BME280;3807;49.030;8.714;2023-04-25T08:10:31;98784.59;;;11.86;65.00
7532;BME280;3807;49.030;8.714;2023-04-25T08:12:57;98776.09;;;11.86;65.09
7532;BME280;3807;49.030;8.714;2023-04-25T08:15:22;98782.72;;;11.90;64.92
7532;BME280;3807;49.030;8.714;2023-04-25T08:17:47;98785.12;;;11.93;64.82
7532;BME280;3807;49.030;8.714;2023-04-25T08:20:12;98789.84;;;11.82;65.19
7532;BME280;3807;49.030;8.714;2023-04-25T08:22:38;98798.06;;;11.88;64.94
7532;BME280;3807;49.030;8.714;2023-04-25T08:25:04;98797.41;;;11.85;65.03
7532;BME280;3807;49.030;8.714;2023-04-25T08:27:29;98796.44;;;11.87;64.96
7532;BME280;3807;49.030;8.714;2023-04-25T08:29:55;98806.59;;;11.89;65.19
7532;BME280;3807;49.030;8.714;2023-04-25T08:32:20;98807.53;;;11.86;65.22
7532;BME280;3807;49.030;8.714;2023-04-25T08:34:46;98805.81;;;11.87;65.00
7532;BME280;3807;49.030;8.714;2023-04-25T08:37:12;98810.16;;;11.85;65.41
7532;BME280;3807;49.030;8.714;2023-04-25T08:39:37;98817.81;;;11.85;65.13
7532;BME280;3807;49.030;8.714;2023-04-25T08:42:06;98819.59;;;11.83;65.56
7532;BME280;3807;49.030;8.714;2023-04-25T08:44:35;98818.97;;;11.78;65.78
7532;BME280;3807;49.030;8.714;2023-04-25T08:47:03;98824.50;;;11.87;65.46
7532;BME280;3807;49.030;8.714;2023-04-25T08:49:33;98827.19;;;11.84;65.54
7532;BME280;3807;49.030;8.714;2023-04-25T08:52:00;98828.69;;;11.88;65.46
7532;BME280;3807;49.030;8.714;2023-04-25T08:54:27;98829.38;;;11.92;65.36
7532;BME280;3807;49.030;8.714;2023-04-25T08:56:54;98840.34;;;11.94;65.41
7532;BME280;3807;49.030;8.714;2023-04-25T08:59:21;98834.69;;;11.87;65.74
7532;BME280;3807;49.030;8.714;2023-04-25T09:01:46;98848.38;;;11.86;65.82
7532;BME280;3807;49.030;8.714;2023-04-25T09:04:12;98855.94;;;11.88;65.69
7532;BME280;3807;49.030;8.714;2023-04-25T09:06:37;98862.00;;;11.48;67.30
7532;BME280;3807;49.030;8.714;2023-04-25T09:09:04;98873.50;;;11.56;67.25
7532;BME280;3807;49.030;8.714;2023-04-25T09:11:30;98890.88;;;11.48;67.73
7532;BME280;3807;49.030;8.714;2023-04-25T09:14:10;98895.63;;;11.56;67.59
7532;BME280;3807;49.030;8.714;2023-04-25T09:16:57;98892.16;;;11.57;67.43
7532;BME280;3807;49.030;8.714;2023-04-25T09:19:29;98895.75;;;11.53;67.68
7532;BME280;3807;49.030;8.714;2023-04-25T09:22:00;98902.81;;;11.66;67.25
7532;BME280;3807;49.030;8.714;2023-04-25T09:24:49;98899.12;;;11.53;67.91
7532;BME280;3807;49.030;8.714;2023-04-25T09:27:21;98899.91;;;11.74;67.01
7532;BME280;3807;49.030;8.714;2023-04-25T09:29:56;98906.03;;;11.70;66.97
7532;BME280;3807;49.030;8.714;2023-04-25T09:32:23;98908.47;;;11.73;67.02
7532;BME280;3807;49.030;8.714;2023-04-25T09:34:51;98917.28;;;11.66;67.27
7532;BME280;3807;49.030;8.714;2023-04-25T09:37:17;98919.81;;;11.86;66.47
7532;BME280;3807;49.030;8.714;2023-04-25T09:39:45;98926.44;;;11.70;66.96
7532;BME280;3807;49.030;8.714;2023-04-25T09:42:11;98928.78;;;11.75;66.78
7532;BME280;3807;49.030;8.714;2023-04-25T09:44:36;98928.25;;;11.68;67.20
7532;BME280;3807;49.030;8.714;2023-04-25T09:47:02;98935.47;;;11.77;67.02
7532;BME280;3807;49.030;8.714;2023-04-25T09:49:28;98940.25;;;11.85;66.65
7532;BME280;3807;49.030;8.714;2023-04-25T09:51:57;98937.12;;;11.78;66.87
7532;BME280;3807;49.030;8.714;2023-04-25T09:54:24;98940.38;;;11.82;66.76
7532;BME280;3807;49.030;8.714;2023-04-25T09:56:51;98943.69;;;11.65;67.84
7532;BME280;3807;49.030;8.714;2023-04-25T09:59:20;98941.50;;;11.76;66.74
7532;BME280;3807;49.030;8.714;2023-04-25T10:01:46;98947.97;;;11.83;66.58
7532;BME280;3807;49.030;8.714;2023-04-25T10:04:18;98955.53;;;11.86;66.77
7532;BME280;3807;49.030;8.714;2023-04-25T10:06:45;98951.94;;;11.70;67.14
7532;BME280;3807;49.030;8.714;2023-04-25T10:09:12;98954.72;;;11.65;67.34
7532;BME280;3807;49.030;8.714;2023-04-25T10:11:39;98956.16;;;11.71;67.16
7532;BME280;3807;49.030;8.714;2023-04-25T10:14:04;98961.69;;;11.81;67.01
7532;BME280;3807;49.030;8.714;2023-04-25T10:16:30;98958.56;;;11.74;67.11
7532;BME280;3807;49.030;8.714;2023-04-25T10:18:56;98963.50;;;11.79;66.79
7532;BME280;3807;49.030;8.714;2023-04-25T10:21:22;98967.91;;;11.75;67.08
7532;BME280;3807;49.030;8.714;2023-04-25T10:23:49;98969.06;;;11.68;67.29
7532;BME280;3807;49.030;8.714;2023-04-25T10:26:14;98968.03;;;11.72;67.09
7532;BME280;3807;49.030;8.714;2023-04-25T10:31:21;98974.69;;;11.56;67.86
7532;BME280;3807;49.030;8.714;2023-04-25T10:33:48;98979.06;;;11.33;69.78
7532;BME280;3807;49.030;8.714;2023-04-25T10:36:14;98975.16;;;11.64;68.11
7532;BME280;3807;49.030;8.714;2023-04-25T10:38:42;98981.97;;;11.44;69.20
7532;BME280;3807;49.030;8.714;2023-04-25T10:41:08;98973.03;;;11.55;68.19
7532;BME280;3807;49.030;8.714;2023-04-25T10:43:35;98974.66;;;11.37;68.92
7532;BME280;3807;49.030;8.714;2023-04-25T10:46:26;98981.72;;;11.51;69.17
7532;BME280;3807;49.030;8.714;2023-04-25T10:48:54;98982.72;;;11.47;69.89
7532;BME280;3807;49.030;8.714;2023-04-25T10:51:23;98981.06;;;11.45;68.26
7532;BME280;3807;49.030;8.714;2023-04-25T10:58:47;98991.72;;;11.55;68.37
7532;BME280;3807;49.030;8.714;2023-04-25T11:01:13;98995.09;;;11.56;68.82
7532;BME280;3807;49.030;8.714;2023-04-25T11:03:41;98996.84;;;11.54;69.34
7532;BME280;3807;49.030;8.714;2023-04-25T11:06:17;98995.53;;;11.65;68.21
7532;BME280;3807;49.030;8.714;2023-04-25T11:08:51;99000.19;;;11.15;71.33
7532;BME280;3807;49.030;8.714;2023-04-25T11:11:18;98999.00;;;11.24;70.78
7532;BME280;3807;49.030;8.714;2023-04-25T11:13:44;99000.69;;;11.64;68.36
7532;BME280;3807;49.030;8.714;2023-04-25T11:16:10;99001.53;;;11.44;69.37
7532;BME280;3807;49.030;8.714;2023-04-25T11:18:35;99006.31;;;11.52;70.21
7532;BME280;3807;49.030;8.714;2023-04-25T11:21:02;98994.63;;;11.46;72.13
7532;BME280;3807;49.030;8.714;2023-04-25T11:23:29;99003.50;;;11.58;69.05
7532;BME280;3807;49.030;8.714;2023-04-25T11:25:55;99011.22;;;11.56;69.23
7532;BME280;3807;49.030;8.714;2023-04-25T11:28:21;99002.41;;;11.43;71.03
7532;BME280;3807;49.030;8.714;2023-04-25T11:30:50;99000.44;;;11.50;69.96
7532;BME280;3807;49.030;8.714;2023-04-25T11:33:16;99001.34;;;11.49;69.95
7532;BME280;3807;49.030;8.714;2023-04-25T11:35:41;99004.22;;;11.61;69.79
7532;BME280;3807;49.030;8.714;2023-04-25T11:38:07;99007.25;;;11.29;72.63
7532;BME280;3807;49.030;8.714;2023-04-25T11:40:32;99013.19;;;11.50;69.95
7532;BME280;3807;49.030;8.714;2023-04-25T11:43:00;99009.09;;;11.66;69.39
7532;BME280;3807;49.030;8.714;2023-04-25T11:45:26;99014.81;;;11.71;68.99
7532;BME280;3807;49.030;8.714;2023-04-25T11:47:51;99005.88;;;11.81;69.94
7532;BME280;3807;49.030;8.714;2023-04-25T11:50:17;99015.81;;;11.68;71.87
7532;BME280;3807;49.030;8.714;2023-04-25T11:52:46;99017.50;;;11.88;70.41
7532;BME280;3807;49.030;8.714;2023-04-25T11:55:18;99027.97;;;11.82;70.13
7532;BME280;3807;49.030;8.714;2023-04-25T11:57:45;99017.25;;;11.74;69.94
7532;BME280;3807;49.030;8.714;2023-04-25T12:00:19;99026.56;;;11.75;72.91
7532;BME280;3807;49.030;8.714;2023-04-25T12:02:47;99011.44;;;11.91;69.30
7532;BME280;3807;49.030;8.714;2023-04-25T12:05:15;99025.13;;;12.09;68.77
7532;BME280;3807;49.030;8.714;2023-04-25T12:07:41;99023.38;;;11.90;70.50
7532;BME280;3807;49.030;8.714;2023-04-25T12:10:09;99029.94;;;11.96;69.29
7532;BME280;3807;49.030;8.714;2023-04-25T12:12:35;99038.94;;;11.64;72.88
7532;BME280;3807;49.030;8.714;2023-04-25T12:17:38;99038.59;;;11.92;71.64
7532;BME280;3807;49.030;8.714;2023-04-25T12:20:13;99045.06;;;11.39;74.83
7532;BME280;3807;49.030;8.714;2023-04-25T12:22:44;99046.22;;;11.73;71.93
7532;BME280;3807;49.030;8.714;2023-04-25T12:25:13;99043.34;;;11.60;72.83
7532;BME280;3807;49.030;8.714;2023-04-25T12:28:16;99050.75;;;11.87;71.35
7532;BME280;3807;49.030;8.714;2023-04-25T12:33:23;99049.06;;;11.25;75.33
7532;BME280;3807;49.030;8.714;2023-04-25T12:35:49;99052.78;;;11.79;73.38
7532;BME280;3807;49.030;8.714;2023-04-25T12:38:41;99047.22;;;12.10;71.16
7532;BME280;3807;49.030;8.714;2023-04-25T12:41:08;99051.34;;;12.31;73.38
7532;BME280;3807;49.030;8.714;2023-04-25T12:43:34;99049.25;;;12.58;73.03
7532;BME280;3807;49.030;8.714;2023-04-25T12:45:59;99053.91;;;12.69;71.67
7532;BME280;3807;49.030;8.714;2023-04-25T12:48:25;99047.34;;;12.63;71.14
7532;BME280;3807;49.030;8.714;2023-04-25T12:50:51;99039.91;;;12.59;71.94
7532;BME280;3807;49.030;8.714;2023-04-25T12:53:17;99043.03;;;12.64;72.91
7532;BME280;3807;49.030;8.714;2023-04-25T12:55:43;99040.25;;;12.87;71.46
7532;BME280;3807;49.030;8.714;2023-04-25T12:58:11;99051.97;;;12.92;70.96
7532;BME280;3807;49.030;8.714;2023-04-25T13:00:36;99055.41;;;12.73;71.88
7532;BME280;3807;49.030;8.714;2023-04-25T13:03:01;99055.94;;;12.80;72.12
7532;BME280;3807;49.030;8.714;2023-04-25T13:05:27;99049.94;;;12.62;71.64
7532;BME280;3807;49.030;8.714;2023-04-25T13:07:52;99056.84;;;12.79;70.56
7532;BME280;3807;49.030;8.714;2023-04-25T13:10:18;99055.97;;;12.61;70.58
7532;BME280;3807;49.030;8.714;2023-04-25T13:12:43;99056.13;;;12.94;69.39
7532;BME280;3807;49.030;8.714;2023-04-25T13:15:09;99059.16;;;12.66;69.92
7532;BME280;3807;49.030;8.714;2023-04-25T13:17:37;99053.88;;;12.12;71.94
7532;BME280;3807;49.030;8.714;2023-04-25T13:20:03;99062.03;;;12.58;71.09
7532;BME280;3807;49.030;8.714;2023-04-25T13:22:31;99058.88;;;12.53;70.89
7532;BME280;3807;49.030;8.714;2023-04-25T13:24:56;99057.56;;;12.63;70.35
7532;BME280;3807;49.030;8.714;2023-04-25T13:27:21;99065.97;;;13.02;68.79
7532;BME280;3807;49.030;8.714;2023-04-25T13:29:47;99068.94;;;13.11;68.44
7532;BME280;3807;49.030;8.714;2023-04-25T13:32:12;99067.19;;;12.95;69.23